createdAt,value
2023-03-04T00:02:43.750Z,6.31
2023-03-04T00:08:04.807Z,6.37
2023-03-04T00:13:25.712Z,6.38
2023-03-04T00:18:46.680Z,6.43
2023-03-04T00:24:07.753Z,6.47
2023-03-04T00:29:28.644Z,6.52
2023-03-04T00:34:49.715Z,6.47
2023-03-04T00:40:11.088Z,6.42
2023-03-04T00:45:32.004Z,6.50
2023-03-04T00:50:53.965Z,6.54
2023-03-04T00:56:14.579Z,6.52
2023-03-04T01:01:35.146Z,6.31
2023-03-04T01:06:55.721Z,6.23
2023-03-04T01:12:16.517Z,6.16
2023-03-04T01:17:37.342Z,6.16
2023-03-04T01:22:57.936Z,6.20
2023-03-04T01:28:18.907Z,6.35
2023-03-04T01:33:39.452Z,6.39
2023-03-04T01:39:00.218Z,6.40
2023-03-04T01:44:21.256Z,6.39
2023-03-04T01:49:42.404Z,6.39
2023-03-04T01:55:14.650Z,6.29
2023-03-04T02:00:37.218Z,6.34
2023-03-04T02:05:58.447Z,6.36
2023-03-04T02:11:19.086Z,6.38
2023-03-04T02:16:40.273Z,6.36
2023-03-04T02:22:00.688Z,6.33
2023-03-04T02:27:22.198Z,6.23
2023-03-04T02:32:43.188Z,6.24
2023-03-04T02:38:04.318Z,6.26
2023-03-04T02:43:28.754Z,6.33
2023-03-04T02:48:51.402Z,6.16
2023-03-04T02:54:21.815Z,6.12
2023-03-04T02:59:43.099Z,6.12
2023-03-04T03:05:09.426Z,6.03
2023-03-04T03:10:30.559Z,6.08
2023-03-04T03:15:51.923Z,6.03
2023-03-04T03:21:15.517Z,6.01
2023-03-04T03:26:36.484Z,5.93
2023-03-04T03:31:57.330Z,5.91
2023-03-04T03:37:18.542Z,5.88
2023-03-04T03:42:39.108Z,5.86
2023-03-04T03:47:59.224Z,5.88
2023-03-04T03:53:19.804Z,5.90
2023-03-04T03:58:40.643Z,5.93
2023-03-04T04:04:01.314Z,5.82
2023-03-04T04:09:21.926Z,5.84
2023-03-04T04:14:42.988Z,5.69
2023-03-04T04:20:04.761Z,5.66
2023-03-04T04:25:25.211Z,5.67
2023-03-04T04:30:46.077Z,5.64
2023-03-04T04:36:06.942Z,5.54
2023-03-04T04:41:31.798Z,5.67
2023-03-04T04:46:52.542Z,5.58
2023-03-04T04:52:13.239Z,5.72
2023-03-04T04:57:34.568Z,5.59
2023-03-04T05:02:55.219Z,5.51
2023-03-04T05:08:15.806Z,5.50
2023-03-04T05:13:36.395Z,5.57
2023-03-04T05:18:56.896Z,5.62
2023-03-04T05:24:17.596Z,5.38
2023-03-04T05:29:38.334Z,5.27
2023-03-04T05:34:59.040Z,5.48
2023-03-04T05:40:19.967Z,5.37
2023-03-04T05:45:40.980Z,5.32
2023-03-04T05:51:01.677Z,5.29
2023-03-04T05:56:22.163Z,5.29
2023-03-04T06:01:43.040Z,5.27
2023-03-04T06:07:03.947Z,5.29
2023-03-04T06:12:24.840Z,5.19
2023-03-04T06:17:45.370Z,5.17
2023-03-04T06:23:06.002Z,5.14
2023-03-04T06:28:26.940Z,5.12
2023-03-04T06:33:47.660Z,5.12
2023-03-04T06:39:08.489Z,5.20
2023-03-04T06:44:28.959Z,5.26
2023-03-04T06:49:50.209Z,5.32
2023-03-04T06:55:10.936Z,5.35
2023-03-04T07:00:31.703Z,5.29
2023-03-04T07:05:52.158Z,5.32
2023-03-04T07:11:13.907Z,5.49
2023-03-04T07:16:34.676Z,5.58
2023-03-04T07:21:55.477Z,5.64
2023-03-04T07:27:16.053Z,5.57
2023-03-04T07:32:36.723Z,5.58
2023-03-04T07:37:57.462Z,5.61
2023-03-04T07:43:19.032Z,5.63
2023-03-04T07:48:40.012Z,5.65
2023-03-04T07:54:01.132Z,5.75
2023-03-04T07:59:21.680Z,5.77
2023-03-04T08:04:42.110Z,5.80
2023-03-04T08:10:03.879Z,5.88
2023-03-04T08:15:25.051Z,5.93
2023-03-04T08:20:45.549Z,5.91
2023-03-04T08:26:15.632Z,5.94
2023-03-04T08:31:36.954Z,6.04
2023-03-04T08:36:57.673Z,6.12
2023-03-04T08:42:18.162Z,6.14
2023-03-04T08:47:39.368Z,6.21
2023-03-04T08:52:59.938Z,6.24
2023-03-04T08:58:20.830Z,6.09
2023-03-04T09:03:42.665Z,5.94
2023-03-04T09:09:04.030Z,5.95
2023-03-04T09:14:27.236Z,6.05
2023-03-04T09:19:48.052Z,6.13
2023-03-04T09:25:13.018Z,6.49
2023-03-04T09:30:35.070Z,6.93
2023-03-04T09:35:55.834Z,7.21
2023-03-04T09:41:21.738Z,6.99
2023-03-04T09:46:44.552Z,6.89
2023-03-04T09:52:20.941Z,6.90
2023-03-04T09:57:56.009Z,7.01
2023-03-04T10:03:19.908Z,7.49
2023-03-04T10:08:46.533Z,7.13
2023-03-04T10:14:22.369Z,7.24
2023-03-04T10:20:07.030Z,7.89
2023-03-04T10:25:32.392Z,7.65
2023-03-04T10:31:12.318Z,7.48
2023-03-04T10:36:42.478Z,7.87
2023-03-04T10:42:06.984Z,8.69
2023-03-04T10:47:29.606Z,9.46
2023-03-04T10:52:53.003Z,11.19
2023-03-04T10:58:19.197Z,10.77
2023-03-04T11:03:48.736Z,11.52
2023-03-04T11:09:22.520Z,16.10
2023-03-04T11:14:49.115Z,15.12
2023-03-04T11:20:17.724Z,13.52
2023-03-04T11:25:49.016Z,10.46
2023-03-04T11:31:16.524Z,14.55
2023-03-04T11:36:57.253Z,17.73
2023-03-04T11:42:52.546Z,16.51
2023-03-04T11:48:25.954Z,16.52
2023-03-04T11:53:59.155Z,14.05
2023-03-04T11:59:38.133Z,13.84
2023-03-04T12:05:35.494Z,11.78
2023-03-04T12:11:09.050Z,10.84
2023-03-04T12:16:56.372Z,10.13
2023-03-04T12:22:28.783Z,10.41
2023-03-04T12:28:00.494Z,15.24
2023-03-04T12:33:24.166Z,13.44
2023-03-04T12:39:00.414Z,10.62
2023-03-04T12:44:21.591Z,9.69
2023-03-04T12:49:51.954Z,9.36
2023-03-04T12:55:17.383Z,9.06
2023-03-04T13:00:59.376Z,8.48
2023-03-04T13:06:39.612Z,12.22
2023-03-04T13:12:15.313Z,17.59
2023-03-04T13:18:12.118Z,15.99
2023-03-04T13:23:33.568Z,20.29
2023-03-04T13:29:08.886Z,15.10
2023-03-04T13:34:41.961Z,18.38
2023-03-04T13:40:21.404Z,12.58
2023-03-04T13:45:42.284Z,10.27
2023-03-04T13:51:03.291Z,9.03
2023-03-04T13:56:28.941Z,8.33
2023-03-04T14:02:12.008Z,7.83
2023-03-04T14:07:36.801Z,7.20
2023-03-04T14:12:58.982Z,6.83
2023-03-04T14:18:19.941Z,6.65
2023-03-04T14:23:40.402Z,6.58
2023-03-04T14:29:02.818Z,6.80
2023-03-04T14:34:30.003Z,6.51
2023-03-04T14:39:56.215Z,6.26
2023-03-04T14:45:17.527Z,6.35
2023-03-04T14:50:51.345Z,6.16
2023-03-04T14:56:12.025Z,5.98
2023-03-04T15:01:35.446Z,5.82
2023-03-04T15:06:55.901Z,5.69
2023-03-04T15:12:23.913Z,5.86
2023-03-04T15:17:45.314Z,5.73
2023-03-04T15:23:07.577Z,5.55
2023-03-04T15:28:37.801Z,5.49
2023-03-04T15:33:58.704Z,5.51
2023-03-04T15:39:21.572Z,5.46
2023-03-04T15:44:42.308Z,5.47
2023-03-04T15:50:03.596Z,5.47
2023-03-04T15:55:24.842Z,5.36
2023-03-04T16:00:45.499Z,5.38
2023-03-04T16:06:19.683Z,5.33
2023-03-04T16:11:45.366Z,5.27
2023-03-04T16:17:05.754Z,5.03
2023-03-04T16:22:30.126Z,5.02
2023-03-04T16:27:52.769Z,5.16
2023-03-04T16:33:16.192Z,5.03
2023-03-04T16:38:36.615Z,4.94
2023-03-04T16:44:00.924Z,4.87
2023-03-04T16:49:21.474Z,4.85
2023-03-04T16:54:41.940Z,4.88
2023-03-04T17:00:03.569Z,4.79
2023-03-04T17:05:26.784Z,4.78
2023-03-04T17:10:48.703Z,4.76
2023-03-04T17:16:16.232Z,4.71
2023-03-04T17:21:37.404Z,4.74
2023-03-04T17:26:58.406Z,4.76
2023-03-04T17:39:50.555Z,4.74
2023-03-04T17:45:11.986Z,5.34
2023-03-04T17:50:32.882Z,5.32
2023-03-04T17:56:00.211Z,5.19
2023-03-04T18:01:24.335Z,5.11
2023-03-04T18:06:44.824Z,5.05
2023-03-04T18:12:06.287Z,5.03
2023-03-04T18:17:31.797Z,4.98
2023-03-04T18:22:52.446Z,4.73
2023-03-04T18:28:13.196Z,4.59
2023-03-04T18:33:35.303Z,4.55
2023-03-04T18:38:57.216Z,4.53
2023-03-04T18:44:17.588Z,4.47
2023-03-04T18:49:43.757Z,4.50
2023-03-04T18:55:04.691Z,4.39
2023-03-04T19:00:26.197Z,4.28
2023-03-04T19:05:49.211Z,4.28
2023-03-04T19:11:10.217Z,4.18
2023-03-04T19:16:31.886Z,4.10
2023-03-04T19:21:52.721Z,4.34
2023-03-04T19:27:14.031Z,4.39
2023-03-04T19:32:35.092Z,4.26
2023-03-04T19:37:55.973Z,4.27
2023-03-04T19:43:16.545Z,4.42
2023-03-04T19:48:40.021Z,4.60
2023-03-04T19:54:00.974Z,4.44
2023-03-04T19:59:22.024Z,4.44
2023-03-04T20:04:42.580Z,4.48
2023-03-04T20:10:03.518Z,4.52
2023-03-04T20:15:25.364Z,4.60
2023-03-04T20:20:48.935Z,4.54
2023-03-04T20:26:12.105Z,4.58
2023-03-04T20:31:44.840Z,4.72
2023-03-04T20:37:05.136Z,4.51
2023-03-04T20:42:25.905Z,4.51
2023-03-04T20:47:46.869Z,4.52
2023-03-04T20:53:07.572Z,4.48
2023-03-04T20:58:28.113Z,4.47
2023-03-04T21:03:49.779Z,4.52
2023-03-04T21:09:13.982Z,4.56
2023-03-04T21:14:34.411Z,4.66
2023-03-04T21:19:54.992Z,4.59
2023-03-04T21:25:15.589Z,4.70
2023-03-04T21:30:36.722Z,4.51
2023-03-04T21:35:58.218Z,4.62
2023-03-04T21:41:22.418Z,4.61
2023-03-04T21:46:45.670Z,4.44
2023-03-04T21:52:13.231Z,4.35
2023-03-04T21:57:35.233Z,4.20
2023-03-04T22:02:55.477Z,4.15
2023-03-04T22:08:25.992Z,4.08
2023-03-04T22:13:50.695Z,4.07
2023-03-04T22:19:19.489Z,4.04
2023-03-04T22:24:40.547Z,4.06
2023-03-04T22:30:02.932Z,4.20
2023-03-04T22:35:31.566Z,4.28
2023-03-04T22:40:52.462Z,4.31
2023-03-04T22:46:25.641Z,4.22
2023-03-04T22:51:46.983Z,4.27
2023-03-04T22:57:07.555Z,4.31
2023-03-04T23:02:29.218Z,4.28
2023-03-04T23:07:51.118Z,4.22
2023-03-04T23:13:11.826Z,4.15
2023-03-04T23:18:32.886Z,4.09
2023-03-04T23:23:53.584Z,3.99
2023-03-04T23:29:15.756Z,3.94
2023-03-04T23:34:36.665Z,3.81
2023-03-04T23:39:57.382Z,3.74
2023-03-04T23:45:17.824Z,3.66
2023-03-04T23:50:38.754Z,3.68
2023-03-04T23:55:59.428Z,3.74
